Terminal Aerodrome Forecast
Issued by NWS

Home | Current Version | Previous Version | Text Only | Print | Product List | Glossary On
Versions: 1 2 3 4 5 6 7 8 9 10 11 12 13 14
000
FTUS44 KLZK 211100
TAFADF
TAF
KADF 211121Z 2112/2212 16004KT P6SM SCT015 WS020/23035KT
      TEMPO 2112/2114 4SM BR BKN012
     FM211500 21008G16KT P6SM SCT040
     FM220100 17003KT P6SM FEW050=

USA.gov is the U.S. government's official web portal to all federal, state and local government web resources and services.